createdAt,value
2018-06-01T00:02:05.979Z,45.18
2018-06-01T00:06:57.610Z,45.69
2018-06-01T00:11:49.243Z,46.03
2018-06-01T00:16:41.648Z,46.39
2018-06-01T00:21:32.526Z,46.79
2018-06-01T00:26:24.172Z,47.18
2018-06-01T00:31:15.844Z,47.65
2018-06-01T00:36:07.450Z,47.91
2018-06-01T00:40:59.125Z,48.27
2018-06-01T00:45:50.797Z,48.34
2018-06-01T00:50:41.671Z,48.65
2018-06-01T00:55:32.575Z,49.24
2018-06-01T01:00:23.485Z,49.19
2018-06-01T01:05:15.100Z,49.25
2018-06-01T01:10:06.022Z,49.44
2018-06-01T01:14:56.950Z,49.58
2018-06-01T01:19:48.618Z,49.62
2018-06-01T01:24:40.292Z,49.67
2018-06-01T01:29:31.932Z,49.73
2018-06-01T01:34:22.815Z,49.80
2018-06-01T01:39:13.750Z,49.92
2018-06-01T01:44:05.376Z,50.01
2018-06-01T01:48:56.309Z,49.97
2018-06-01T01:53:47.202Z,49.96
2018-06-01T01:58:38.136Z,49.74
2018-06-01T02:03:29.768Z,49.81
2018-06-01T02:08:21.414Z,49.84
2018-06-01T02:13:12.301Z,49.66
2018-06-01T02:18:03.965Z,49.73
2018-06-01T02:22:54.897Z,49.77
2018-06-01T02:27:45.805Z,49.69
2018-06-01T02:32:36.735Z,49.73
2018-06-01T02:37:27.734Z,49.78
2018-06-01T02:42:19.392Z,49.68
2018-06-01T02:47:11.048Z,49.63
2018-06-01T02:52:01.966Z,49.84
2018-06-01T02:56:52.847Z,49.93
2018-06-01T03:01:44.499Z,49.96
2018-06-01T03:07:04.169Z,50.06
2018-06-01T03:11:55.781Z,50.16
2018-06-01T03:16:46.665Z,50.20
2018-06-01T03:21:37.568Z,50.42
2018-06-01T03:26:28.436Z,50.45
2018-06-01T03:31:19.344Z,50.46
2018-06-01T03:36:10.244Z,50.85
2018-06-01T03:41:01.151Z,50.74
2018-06-01T03:45:52.023Z,50.68
2018-06-01T03:50:42.919Z,50.63
2018-06-01T03:55:33.852Z,50.83
2018-06-01T04:00:24.753Z,50.80
2018-06-01T04:05:15.665Z,50.81
2018-06-01T04:10:06.555Z,50.91
2018-06-01T04:14:58.197Z,51.10
2018-06-01T04:19:49.845Z,51.35
2018-06-01T04:24:41.500Z,51.35
2018-06-01T04:29:32.430Z,51.61
2018-06-01T04:34:23.317Z,51.84
2018-06-01T04:39:14.981Z,51.72
2018-06-01T04:44:05.919Z,51.83
2018-06-01T04:48:56.817Z,51.93
2018-06-01T04:53:48.441Z,52.05
2018-06-01T04:58:40.063Z,52.14
2018-06-01T05:03:32.463Z,52.17
2018-06-01T05:08:23.428Z,52.84
2018-06-01T05:13:14.307Z,52.82
2018-06-01T05:18:05.244Z,52.50
2018-06-01T05:22:56.123Z,52.15
2018-06-01T05:27:47.044Z,51.82
2018-06-01T05:32:38.743Z,51.47
2018-06-01T05:37:31.178Z,51.54
2018-06-01T05:42:22.100Z,51.36
2018-06-01T05:47:13.732Z,51.04
2018-06-01T05:52:04.644Z,51.15
2018-06-01T05:56:55.526Z,50.70
2018-06-01T06:01:47.183Z,50.52
2018-06-01T06:06:39.624Z,50.49
2018-06-01T06:11:30.569Z,50.34
2018-06-01T06:16:21.471Z,50.32
2018-06-01T06:21:13.135Z,49.90
2018-06-01T06:26:04.137Z,49.45
2018-06-01T06:30:55.775Z,49.21
2018-06-01T06:35:46.736Z,49.54
2018-06-01T06:40:37.636Z,49.92
2018-06-01T06:45:28.546Z,50.25
2018-06-01T06:50:20.163Z,50.39
2018-06-01T06:55:11.096Z,50.34
2018-06-01T07:00:02.684Z,50.61
2018-06-01T07:04:53.552Z,50.73
2018-06-01T07:09:44.507Z,51.26
2018-06-01T07:14:35.424Z,52.05
2018-06-01T07:19:26.377Z,51.92
2018-06-01T07:24:18.010Z,50.46
2018-06-01T07:29:09.668Z,48.52
2018-06-01T07:34:01.348Z,46.84
2018-06-01T07:38:52.328Z,44.59
2018-06-01T07:43:44.028Z,42.79
2018-06-01T07:48:36.425Z,40.99
2018-06-01T07:53:27.303Z,40.17
2018-06-01T07:58:18.206Z,38.75
2018-06-01T08:03:09.294Z,38.63
2018-06-01T08:08:00.162Z,39.54
2018-06-01T08:12:51.049Z,39.90
2018-06-01T08:17:42.701Z,40.42
2018-06-01T08:22:33.605Z,41.15
2018-06-01T08:27:24.504Z,41.62
2018-06-01T08:32:16.166Z,41.94
2018-06-01T08:37:07.782Z,42.20
2018-06-01T08:41:58.691Z,42.52
2018-06-01T08:46:50.319Z,42.31
2018-06-01T08:51:41.948Z,42.20
2018-06-01T08:56:33.660Z,42.25
2018-06-01T09:01:24.545Z,42.07
2018-06-01T09:06:16.265Z,41.92
2018-06-01T09:11:07.879Z,41.42
2018-06-01T09:16:00.255Z,41.36
2018-06-01T09:20:51.926Z,41.60
2018-06-01T09:25:43.610Z,41.12
2018-06-01T09:30:36.041Z,40.94
2018-06-01T09:35:26.912Z,41.15
2018-06-01T09:40:18.543Z,40.86
2018-06-01T09:45:10.169Z,40.44
2018-06-01T09:50:02.654Z,40.78
2018-06-01T09:54:53.537Z,40.74
2018-06-01T09:59:45.181Z,40.49
2018-06-01T10:04:37.531Z,40.51
2018-06-01T10:09:29.183Z,40.61
2018-06-01T10:14:21.583Z,40.66
2018-06-01T10:19:12.434Z,40.53
2018-06-01T10:24:05.169Z,40.49
2018-06-01T10:28:56.066Z,40.46
2018-06-01T10:33:46.986Z,40.66
2018-06-01T10:38:38.625Z,40.62
2018-06-01T10:43:30.270Z,40.52
2018-06-01T10:48:21.912Z,40.25
2018-06-01T10:53:13.760Z,39.64
2018-06-01T10:58:05.399Z,39.35
2018-06-01T11:02:57.055Z,39.23
2018-06-01T11:07:47.918Z,39.13
2018-06-01T11:12:39.221Z,37.76
2018-06-01T11:17:30.109Z,37.43
2018-06-01T11:22:21.013Z,37.49
2018-06-01T11:27:12.703Z,37.65
2018-06-01T11:32:04.374Z,37.47
2018-06-01T11:36:56.085Z,37.24
2018-06-01T11:41:46.992Z,37.26
2018-06-01T11:46:38.665Z,37.00
2018-06-01T11:51:31.028Z,37.02
2018-06-01T11:56:22.675Z,36.81
2018-06-01T12:01:14.299Z,36.75
2018-06-01T12:06:06.670Z,36.68
2018-06-01T12:10:58.375Z,36.92
2018-06-01T12:15:49.231Z,36.65
2018-06-01T12:20:40.872Z,36.55
2018-06-01T12:25:32.502Z,36.48
2018-06-01T12:30:24.157Z,36.49
2018-06-01T12:35:15.068Z,36.31
2018-06-01T12:40:05.985Z,36.26
2018-06-01T12:44:57.613Z,36.20
2018-06-01T12:49:49.285Z,36.10
2018-06-01T12:54:40.206Z,35.94
2018-06-01T12:59:31.093Z,35.93
2018-06-01T13:04:23.499Z,35.96
2018-06-01T13:09:16.208Z,33.91
2018-06-01T13:14:07.833Z,33.69
2018-06-01T13:18:58.719Z,33.05
2018-06-01T13:23:49.683Z,32.67
2018-06-01T13:28:40.603Z,32.26
2018-06-01T13:33:31.479Z,32.18
2018-06-01T13:38:22.369Z,32.09
2018-06-01T13:43:14.014Z,31.85
2018-06-01T13:48:05.653Z,31.55
2018-06-01T13:52:57.327Z,32.63
2018-06-01T13:57:48.223Z,32.78
2018-06-01T14:02:39.173Z,32.87
2018-06-01T14:07:30.062Z,33.02
2018-06-01T14:12:21.731Z,32.77
2018-06-01T14:17:12.632Z,32.64
2018-06-01T14:22:03.595Z,32.80
2018-06-01T14:26:54.488Z,32.95
2018-06-01T14:31:45.387Z,33.21
2018-06-01T14:36:36.289Z,33.42
2018-06-01T14:41:27.966Z,33.71
2018-06-01T14:46:18.879Z,33.75
2018-06-01T14:51:09.770Z,32.56
2018-06-01T14:56:02.147Z,32.01
2018-06-01T15:00:53.122Z,32.07
2018-06-01T15:05:44.026Z,32.26
2018-06-01T15:10:34.931Z,32.30
2018-06-01T15:15:25.836Z,32.62
2018-06-01T15:20:16.733Z,32.23
2018-06-01T15:25:08.374Z,32.49
2018-06-01T15:29:59.300Z,32.79
2018-06-01T15:34:50.310Z,33.10
2018-06-01T15:39:41.940Z,33.77
2018-06-01T15:44:34.059Z,33.91
2018-06-01T15:49:26.484Z,33.89
2018-06-01T15:54:17.380Z,33.33
2018-06-01T15:59:08.291Z,33.11
2018-06-01T16:03:59.934Z,33.15
2018-06-01T16:08:50.829Z,33.93
2018-06-01T16:13:42.507Z,35.03
2018-06-01T16:18:34.179Z,35.10
2018-06-01T16:23:25.064Z,35.54
2018-06-01T16:28:16.706Z,35.24
2018-06-01T16:33:07.630Z,35.30
2018-06-01T16:37:58.548Z,35.53
2018-06-01T16:42:49.479Z,35.59
2018-06-01T16:47:40.397Z,36.64
2018-06-01T16:52:32.002Z,37.63
2018-06-01T16:57:22.955Z,39.04
2018-06-01T17:02:13.875Z,39.70
2018-06-01T17:07:04.757Z,40.50
2018-06-01T17:11:56.439Z,41.23
2018-06-01T17:16:47.334Z,42.02
2018-06-01T17:21:38.244Z,47.53
2018-06-01T17:26:29.149Z,51.36
2018-06-01T17:31:20.823Z,56.19
2018-06-01T17:36:11.733Z,58.75
2018-06-01T17:41:03.458Z,62.07
2018-06-01T17:45:54.373Z,63.32
2018-06-01T17:50:45.991Z,65.02
2018-06-01T17:55:37.648Z,65.83
2018-06-01T18:00:29.286Z,66.89
2018-06-01T18:05:20.198Z,67.28
2018-06-01T18:10:11.835Z,67.49
2018-06-01T18:15:04.233Z,68.05
2018-06-01T18:19:55.136Z,68.84
2018-06-01T18:24:46.194Z,67.61
2018-06-01T18:29:38.586Z,66.36
2018-06-01T18:34:30.274Z,67.81
2018-06-01T18:39:21.284Z,67.43
2018-06-01T18:44:12.924Z,67.63
2018-06-01T18:49:03.843Z,67.51
2018-06-01T18:53:55.443Z,66.48
2018-06-01T18:58:47.081Z,66.16
2018-06-01T19:03:39.565Z,66.13
2018-06-01T19:08:30.492Z,66.62
2018-06-01T19:13:21.433Z,66.48
2018-06-01T19:18:13.367Z,66.17
2018-06-01T19:23:04.391Z,66.30
2018-06-01T19:27:55.269Z,65.43
2018-06-01T19:32:46.909Z,64.93
2018-06-01T19:37:38.537Z,64.78
2018-06-01T19:42:30.498Z,65.24
2018-06-01T19:47:22.118Z,65.66
2018-06-01T19:52:13.756Z,66.27
2018-06-01T19:57:05.393Z,66.50
2018-06-01T20:01:57.884Z,66.53
2018-06-01T20:06:48.808Z,66.21
2018-06-01T20:11:39.689Z,65.91
2018-06-01T20:16:32.103Z,66.00
2018-06-01T20:21:22.977Z,65.70
2018-06-01T20:26:14.065Z,65.93
2018-06-01T20:31:04.966Z,66.17
2018-06-01T20:35:55.930Z,66.70
2018-06-01T20:40:48.330Z,66.35
2018-06-01T20:45:39.241Z,66.41
2018-06-01T20:50:30.171Z,66.57
2018-06-01T20:55:21.955Z,66.38
2018-06-01T21:00:13.649Z,66.25
2018-06-01T21:05:04.660Z,66.35
2018-06-01T21:09:55.576Z,67.22
2018-06-01T21:14:46.473Z,68.30
2018-06-01T21:19:37.510Z,68.89
2018-06-01T21:24:28.438Z,69.17
2018-06-01T21:29:19.356Z,69.77
2018-06-01T21:34:11.006Z,70.25
2018-06-01T21:39:01.945Z,70.69
2018-06-01T21:43:52.939Z,70.73
2018-06-01T21:48:43.836Z,70.50
2018-06-01T21:53:34.749Z,70.37
2018-06-01T21:58:26.420Z,70.49
2018-06-01T22:03:17.353Z,70.50
2018-06-01T22:08:08.258Z,70.54
2018-06-01T22:12:59.915Z,70.70
2018-06-01T22:17:50.828Z,70.58
2018-06-01T22:22:41.722Z,70.28
2018-06-01T22:27:32.640Z,70.27
2018-06-01T22:32:23.544Z,69.91
2018-06-01T22:37:15.195Z,69.72
2018-06-01T22:42:06.107Z,69.71
2018-06-01T22:46:57.747Z,69.64
2018-06-01T22:51:49.405Z,69.64
2018-06-01T22:56:40.360Z,70.08
2018-06-01T23:01:31.290Z,70.04
2018-06-01T23:06:22.180Z,70.27
2018-06-01T23:11:13.091Z,69.95
2018-06-01T23:16:03.996Z,70.04
2018-06-01T23:20:55.654Z,69.96
2018-06-01T23:25:46.569Z,70.24
2018-06-01T23:30:40.642Z,70.32
2018-06-01T23:35:31.539Z,70.31
2018-06-01T23:40:23.207Z,70.21
2018-06-01T23:45:14.852Z,69.90
2018-06-01T23:50:05.795Z,70.11
2018-06-01T23:54:56.692Z,70.13
2018-06-01T23:59:47.582Z,70.22
